sensor_id;sensor_type;location;lat;lon;timestamp;pressure;altitude;pressure_sealevel;temperature;humidity
16690;BME280;8458;52.220;9.884;2023-04-28T00:01:49;100895.53;;;9.38;58.24
16690;BME280;8458;52.220;9.884;2023-04-28T00:04:16;100885.91;;;9.41;57.66
16690;BME280;8458;52.220;9.884;2023-04-28T00:06:42;100892.28;;;9.41;57.65
16690;BME280;8458;52.220;9.884;2023-04-28T00:09:09;100884.47;;;9.38;58.76
16690;BME280;8458;52.220;9.884;2023-04-28T00:11:36;100885.28;;;9.39;59.58
16690;BME280;8458;52.220;9.884;2023-04-28T00:14:03;100881.63;;;9.33;59.64
16690;BME280;8458;52.220;9.884;2023-04-28T00:16:30;100879.38;;;9.30;59.92
16690;BME280;8458;52.220;9.884;2023-04-28T00:18:57;100880.44;;;9.29;60.19
16690;BME280;8458;52.220;9.884;2023-04-28T00:21:24;100873.41;;;9.21;60.63
16690;BME280;8458;52.220;9.884;2023-04-28T00:23:50;100875.25;;;9.15;60.60
16690;BME280;8458;52.220;9.884;2023-04-28T00:26:17;100877.09;;;9.10;60.93
16690;BME280;8458;52.220;9.884;2023-04-28T00:28:43;100873.38;;;9.04;61.06
16690;BME280;8458;52.220;9.884;2023-04-28T00:31:10;100868.47;;;9.06;60.83
16690;BME280;8458;52.220;9.884;2023-04-28T00:33:37;100861.00;;;9.07;60.58
16690;BME280;8458;52.220;9.884;2023-04-28T00:36:06;100867.03;;;9.04;60.88
16690;BME280;8458;52.220;9.884;2023-04-28T00:38:33;100859.47;;;8.99;61.25
16690;BME280;8458;52.220;9.884;2023-04-28T00:41:00;100853.94;;;8.99;61.73
16690;BME280;8458;52.220;9.884;2023-04-28T00:43:26;100862.25;;;8.99;62.04
16690;BME280;8458;52.220;9.884;2023-04-28T00:45:53;100858.91;;;8.97;61.85
16690;BME280;8458;52.220;9.884;2023-04-28T00:48:20;100857.47;;;8.94;61.94
16690;BME280;8458;52.220;9.884;2023-04-28T00:50:47;100860.56;;;8.98;61.71
16690;BME280;8458;52.220;9.884;2023-04-28T00:53:15;100853.88;;;8.94;61.71
16690;BME280;8458;52.220;9.884;2023-04-28T00:55:41;100847.91;;;9.02;61.18
16690;BME280;8458;52.220;9.884;2023-04-28T00:58:08;100845.72;;;9.04;61.27
16690;BME280;8458;52.220;9.884;2023-04-28T01:00:34;100845.22;;;9.07;61.21
16690;BME280;8458;52.220;9.884;2023-04-28T01:03:01;100835.34;;;9.11;61.31
16690;BME280;8458;52.220;9.884;2023-04-28T01:05:28;100838.69;;;9.13;61.03
16690;BME280;8458;52.220;9.884;2023-04-28T01:07:55;100832.41;;;9.01;61.72
16690;BME280;8458;52.220;9.884;2023-04-28T01:10:23;100830.81;;;8.88;62.44
16690;BME280;8458;52.220;9.884;2023-04-28T01:12:50;100827.78;;;8.90;62.67
16690;BME280;8458;52.220;9.884;2023-04-28T01:15:17;100820.94;;;8.92;62.31
16690;BME280;8458;52.220;9.884;2023-04-28T01:17:46;100826.88;;;9.01;61.93
16690;BME280;8458;52.220;9.884;2023-04-28T01:20:12;100815.81;;;9.01;61.27
16690;BME280;8458;52.220;9.884;2023-04-28T01:22:39;100817.41;;;8.97;61.53
16690;BME280;8458;52.220;9.884;2023-04-28T01:25:07;100824.94;;;8.85;61.58
16690;BME280;8458;52.220;9.884;2023-04-28T01:27:34;100825.09;;;8.78;62.27
16690;BME280;8458;52.220;9.884;2023-04-28T01:30:00;100820.31;;;8.73;62.50
16690;BME280;8458;52.220;9.884;2023-04-28T01:32:27;100825.41;;;8.65;62.58
16690;BME280;8458;52.220;9.884;2023-04-28T01:34:53;100818.00;;;8.53;62.94
16690;BME280;8458;52.220;9.884;2023-04-28T01:37:20;100811.66;;;8.53;63.47
16690;BME280;8458;52.220;9.884;2023-04-28T01:39:47;100803.13;;;8.54;63.69
16690;BME280;8458;52.220;9.884;2023-04-28T01:42:14;100815.50;;;8.52;64.28
16690;BME280;8458;52.220;9.884;2023-04-28T01:44:41;100809.38;;;8.50;64.22
16690;BME280;8458;52.220;9.884;2023-04-28T01:47:07;100803.63;;;8.39;64.82
16690;BME280;8458;52.220;9.884;2023-04-28T01:49:34;100805.31;;;8.40;65.97
16690;BME280;8458;52.220;9.884;2023-04-28T01:52:00;100802.41;;;8.47;66.49
16690;BME280;8458;52.220;9.884;2023-04-28T01:54:27;100791.13;;;8.49;65.70
16690;BME280;8458;52.220;9.884;2023-04-28T01:56:53;100799.78;;;8.52;65.27
16690;BME280;8458;52.220;9.884;2023-04-28T01:59:21;100791.22;;;8.54;65.45
16690;BME280;8458;52.220;9.884;2023-04-28T02:01:48;100784.34;;;8.56;65.69
16690;BME280;8458;52.220;9.884;2023-04-28T02:04:14;100769.44;;;8.57;65.91
16690;BME280;8458;52.220;9.884;2023-04-28T02:06:41;100776.91;;;8.57;66.06
16690;BME280;8458;52.220;9.884;2023-04-28T02:09:08;100768.00;;;8.55;66.04
16690;BME280;8458;52.220;9.884;2023-04-28T02:11:34;100770.28;;;8.58;66.07
16690;BME280;8458;52.220;9.884;2023-04-28T02:14:00;100765.59;;;8.58;66.01
16690;BME280;8458;52.220;9.884;2023-04-28T02:16:28;100763.91;;;8.57;66.00
16690;BME280;8458;52.220;9.884;2023-04-28T02:18:55;100767.50;;;8.58;66.19
16690;BME280;8458;52.220;9.884;2023-04-28T02:21:21;100760.97;;;8.64;66.12
16690;BME280;8458;52.220;9.884;2023-04-28T02:23:48;100760.72;;;8.66;66.30
16690;BME280;8458;52.220;9.884;2023-04-28T02:26:15;100762.75;;;8.70;65.76
16690;BME280;8458;52.220;9.884;2023-04-28T02:28:41;100750.88;;;8.70;65.95
16690;BME280;8458;52.220;9.884;2023-04-28T02:31:09;100751.19;;;8.73;66.08
16690;BME280;8458;52.220;9.884;2023-04-28T02:33:37;100755.47;;;8.64;66.10
16690;BME280;8458;52.220;9.884;2023-04-28T02:36:04;100745.50;;;8.63;65.96
16690;BME280;8458;52.220;9.884;2023-04-28T02:38:32;100737.22;;;8.63;65.85
16690;BME280;8458;52.220;9.884;2023-04-28T02:40:59;100733.09;;;8.66;65.48
16690;BME280;8458;52.220;9.884;2023-04-28T02:43:26;100725.41;;;8.68;65.10
16690;BME280;8458;52.220;9.884;2023-04-28T02:45:52;100724.53;;;8.67;64.71
16690;BME280;8458;52.220;9.884;2023-04-28T02:48:19;100725.06;;;8.64;65.30
16690;BME280;8458;52.220;9.884;2023-04-28T02:50:47;100724.22;;;8.64;65.80
16690;BME280;8458;52.220;9.884;2023-04-28T02:53:14;100728.25;;;8.56;66.34
16690;BME280;8458;52.220;9.884;2023-04-28T02:55:40;100716.84;;;8.52;66.53
16690;BME280;8458;52.220;9.884;2023-04-28T02:58:07;100714.47;;;8.44;66.52
16690;BME280;8458;52.220;9.884;2023-04-28T03:00:33;100714.13;;;8.40;66.40
16690;BME280;8458;52.220;9.884;2023-04-28T03:03:00;100714.84;;;8.48;65.96
16690;BME280;8458;52.220;9.884;2023-04-28T03:05:27;100713.16;;;8.47;66.02
16690;BME280;8458;52.220;9.884;2023-04-28T03:07:54;100701.59;;;8.50;66.40
16690;BME280;8458;52.220;9.884;2023-04-28T03:10:21;100703.06;;;8.40;66.50
16690;BME280;8458;52.220;9.884;2023-04-28T03:12:48;100702.63;;;8.32;66.88
16690;BME280;8458;52.220;9.884;2023-04-28T03:15:15;100689.25;;;8.23;67.52
16690;BME280;8458;52.220;9.884;2023-04-28T03:17:42;100698.53;;;8.17;67.77
16690;BME280;8458;52.220;9.884;2023-04-28T03:20:09;100700.34;;;8.12;67.97
16690;BME280;8458;52.220;9.884;2023-04-28T03:22:37;100692.16;;;8.17;67.30
16690;BME280;8458;52.220;9.884;2023-04-28T03:25:05;100687.81;;;8.21;67.19
16690;BME280;8458;52.220;9.884;2023-04-28T03:27:31;100690.47;;;8.16;67.42
16690;BME280;8458;52.220;9.884;2023-04-28T03:29:58;100687.38;;;8.12;67.67
16690;BME280;8458;52.220;9.884;2023-04-28T03:32:24;100683.78;;;8.12;67.60
16690;BME280;8458;52.220;9.884;2023-04-28T03:34:51;100683.69;;;8.06;67.36
16690;BME280;8458;52.220;9.884;2023-04-28T03:37:17;100681.75;;;8.07;67.24
16690;BME280;8458;52.220;9.884;2023-04-28T03:39:44;100677.59;;;8.04;67.28
16690;BME280;8458;52.220;9.884;2023-04-28T03:42:12;100685.75;;;7.99;67.13
16690;BME280;8458;52.220;9.884;2023-04-28T03:44:38;100673.88;;;7.99;66.99
16690;BME280;8458;52.220;9.884;2023-04-28T03:47:05;100672.19;;;7.98;67.10
16690;BME280;8458;52.220;9.884;2023-04-28T03:49:32;100665.94;;;8.02;66.84
16690;BME280;8458;52.220;9.884;2023-04-28T03:51:59;100671.53;;;7.90;66.89
16690;BME280;8458;52.220;9.884;2023-04-28T03:54:25;100662.41;;;7.90;67.04
16690;BME280;8458;52.220;9.884;2023-04-28T03:56:52;100664.81;;;7.86;67.24
16690;BME280;8458;52.220;9.884;2023-04-28T03:59:20;100666.75;;;7.86;66.73
16690;BME280;8458;52.220;9.884;2023-04-28T04:01:46;100659.91;;;7.88;66.89
16690;BME280;8458;52.220;9.884;2023-04-28T04:04:13;100657.47;;;7.92;66.10
16690;BME280;8458;52.220;9.884;2023-04-28T04:06:39;100657.47;;;7.92;66.40
16690;BME280;8458;52.220;9.884;2023-04-28T04:09:06;100651.38;;;7.90;66.44
16690;BME280;8458;52.220;9.884;2023-04-28T04:11:33;100653.53;;;7.88;67.01
16690;BME280;8458;52.220;9.884;2023-04-28T04:13:59;100647.09;;;7.82;67.15
16690;BME280;8458;52.220;9.884;2023-04-28T04:16:27;100643.72;;;7.80;67.53
16690;BME280;8458;52.220;9.884;2023-04-28T04:18:54;100645.56;;;7.75;67.97
16690;BME280;8458;52.220;9.884;2023-04-28T04:21:21;100638.94;;;7.76;68.34
16690;BME280;8458;52.220;9.884;2023-04-28T04:23:47;100646.41;;;7.75;68.96
16690;BME280;8458;52.220;9.884;2023-04-28T04:26:14;100641.22;;;7.79;69.59
16690;BME280;8458;52.220;9.884;2023-04-28T04:28:40;100636.28;;;7.81;70.25
16690;BME280;8458;52.220;9.884;2023-04-28T04:31:07;100643.72;;;7.80;70.28
16690;BME280;8458;52.220;9.884;2023-04-28T04:33:34;100636.88;;;7.83;70.43
16690;BME280;8458;52.220;9.884;2023-04-28T04:36:02;100636.97;;;7.88;70.29
16690;BME280;8458;52.220;9.884;2023-04-28T04:38:29;100631.19;;;7.89;70.33
16690;BME280;8458;52.220;9.884;2023-04-28T04:40:55;100630.38;;;7.89;69.62
16690;BME280;8458;52.220;9.884;2023-04-28T04:43:22;100640.81;;;7.87;69.52
16690;BME280;8458;52.220;9.884;2023-04-28T04:45:48;100632.06;;;7.90;69.57
16690;BME280;8458;52.220;9.884;2023-04-28T04:48:15;100637.41;;;7.97;68.23
16690;BME280;8458;52.220;9.884;2023-04-28T04:50:43;100637.97;;;7.99;67.85
16690;BME280;8458;52.220;9.884;2023-04-28T04:53:10;100633.53;;;7.98;67.74
16690;BME280;8458;52.220;9.884;2023-04-28T04:55:36;100627.75;;;7.99;67.52
16690;BME280;8458;52.220;9.884;2023-04-28T04:58:03;100629.53;;;8.05;67.05
16690;BME280;8458;52.220;9.884;2023-04-28T05:00:30;100636.75;;;8.06;67.85
16690;BME280;8458;52.220;9.884;2023-04-28T05:02:56;100627.03;;;8.04;68.90
16690;BME280;8458;52.220;9.884;2023-04-28T05:05:23;100622.84;;;8.01;69.44
16690;BME280;8458;52.220;9.884;2023-04-28T05:07:50;100620.34;;;8.00;70.53
16690;BME280;8458;52.220;9.884;2023-04-28T05:10:17;100617.09;;;8.03;71.06
16690;BME280;8458;52.220;9.884;2023-04-28T05:12:44;100612.63;;;8.02;71.36
16690;BME280;8458;52.220;9.884;2023-04-28T05:15:10;100618.47;;;8.05;71.12
16690;BME280;8458;52.220;9.884;2023-04-28T05:17:37;100613.81;;;8.06;71.16
16690;BME280;8458;52.220;9.884;2023-04-28T05:20:04;100612.63;;;8.02;70.97
16690;BME280;8458;52.220;9.884;2023-04-28T05:22:30;100613.47;;;8.02;71.30
16690;BME280;8458;52.220;9.884;2023-04-28T05:24:58;100611.31;;;8.04;71.12
16690;BME280;8458;52.220;9.884;2023-04-28T05:27:25;100608.63;;;8.10;70.42
16690;BME280;8458;52.220;9.884;2023-04-28T05:29:51;100611.47;;;8.15;70.02
16690;BME280;8458;52.220;9.884;2023-04-28T05:32:18;100604.94;;;8.21;69.64
16690;BME280;8458;52.220;9.884;2023-04-28T05:34:44;100597.25;;;8.23;69.91
16690;BME280;8458;52.220;9.884;2023-04-28T05:37:11;100606.13;;;8.25;70.33
16690;BME280;8458;52.220;9.884;2023-04-28T05:39:37;100611.97;;;8.29;70.59
16690;BME280;8458;52.220;9.884;2023-04-28T05:42:05;100598.16;;;8.29;71.06
16690;BME280;8458;52.220;9.884;2023-04-28T05:44:31;100599.59;;;8.31;70.99
16690;BME280;8458;52.220;9.884;2023-04-28T05:46:58;100594.63;;;8.33;70.92
16690;BME280;8458;52.220;9.884;2023-04-28T05:49:24;100592.91;;;8.44;70.81
16690;BME280;8458;52.220;9.884;2023-04-28T05:51:53;100588.81;;;8.47;70.86
16690;BME280;8458;52.220;9.884;2023-04-28T05:54:19;100580.59;;;8.52;70.48
16690;BME280;8458;52.220;9.884;2023-04-28T05:56:46;100585.09;;;8.58;69.63
16690;BME280;8458;52.220;9.884;2023-04-28T05:59:14;100580.75;;;8.62;69.61
16690;BME280;8458;52.220;9.884;2023-04-28T06:01:40;100576.66;;;8.65;69.87
16690;BME280;8458;52.220;9.884;2023-04-28T06:04:07;100578.66;;;8.69;69.05
16690;BME280;8458;52.220;9.884;2023-04-28T06:06:33;100573.94;;;8.70;67.04
16690;BME280;8458;52.220;9.884;2023-04-28T06:09:01;100575.88;;;8.69;67.41
16690;BME280;8458;52.220;9.884;2023-04-28T06:11:27;100570.91;;;8.71;67.29
16690;BME280;8458;52.220;9.884;2023-04-28T06:13:54;100573.69;;;8.71;67.42
16690;BME280;8458;52.220;9.884;2023-04-28T06:16:22;100568.72;;;8.73;67.44
16690;BME280;8458;52.220;9.884;2023-04-28T06:18:48;100561.03;;;8.75;66.99
16690;BME280;8458;52.220;9.884;2023-04-28T06:21:15;100564.38;;;8.77;66.17
16690;BME280;8458;52.220;9.884;2023-04-28T06:23:41;100558.53;;;8.74;67.32
16690;BME280;8458;52.220;9.884;2023-04-28T06:26:08;100567.66;;;8.74;68.23
16690;BME280;8458;52.220;9.884;2023-04-28T06:28:34;100566.63;;;8.81;68.34
16690;BME280;8458;52.220;9.884;2023-04-28T06:31:01;100561.09;;;8.81;68.25
16690;BME280;8458;52.220;9.884;2023-04-28T06:33:29;100555.63;;;8.86;68.29
16690;BME280;8458;52.220;9.884;2023-04-28T06:35:55;100560.22;;;8.97;67.44
16690;BME280;8458;52.220;9.884;2023-04-28T06:38:22;100564.13;;;9.01;67.48
16690;BME280;8458;52.220;9.884;2023-04-28T06:40:48;100566.44;;;9.09;66.22
16690;BME280;8458;52.220;9.884;2023-04-28T06:43:15;100575.31;;;9.11;65.22
16690;BME280;8458;52.220;9.884;2023-04-28T06:45:41;100570.09;;;9.15;64.93
16690;BME280;8458;52.220;9.884;2023-04-28T06:48:08;100578.47;;;9.20;65.26
16690;BME280;8458;52.220;9.884;2023-04-28T06:50:37;100581.59;;;9.29;65.79
16690;BME280;8458;52.220;9.884;2023-04-28T06:53:03;100582.25;;;9.36;65.11
16690;BME280;8458;52.220;9.884;2023-04-28T06:55:30;100574.56;;;9.43;65.56
16690;BME280;8458;52.220;9.884;2023-04-28T06:57:56;100573.47;;;9.44;64.14
16690;BME280;8458;52.220;9.884;2023-04-28T07:00:23;100560.53;;;9.50;64.41
16690;BME280;8458;52.220;9.884;2023-04-28T07:02:49;100560.84;;;9.54;65.65
16690;BME280;8458;52.220;9.884;2023-04-28T07:05:16;100562.25;;;9.56;63.85
16690;BME280;8458;52.220;9.884;2023-04-28T07:07:44;100552.59;;;9.59;64.72
16690;BME280;8458;52.220;9.884;2023-04-28T07:10:10;100550.41;;;9.61;64.58
16690;BME280;8458;52.220;9.884;2023-04-28T07:12:39;100544.88;;;9.61;65.26
16690;BME280;8458;52.220;9.884;2023-04-28T07:15:06;100549.88;;;9.64;63.27
16690;BME280;8458;52.220;9.884;2023-04-28T07:17:33;100546.34;;;9.68;62.57
16690;BME280;8458;52.220;9.884;2023-04-28T07:19:59;100537.50;;;9.72;63.39
16690;BME280;8458;52.220;9.884;2023-04-28T07:22:26;100537.28;;;9.78;62.82
16690;BME280;8458;52.220;9.884;2023-04-28T07:24:53;100543.09;;;9.82;63.17
16690;BME280;8458;52.220;9.884;2023-04-28T07:27:20;100530.97;;;9.88;61.89
16690;BME280;8458;52.220;9.884;2023-04-28T07:29:47;100540.19;;;9.94;61.18
16690;BME280;8458;52.220;9.884;2023-04-28T07:32:13;100531.34;;;9.97;60.97
16690;BME280;8458;52.220;9.884;2023-04-28T07:34:41;100531.91;;;9.99;61.04
16690;BME280;8458;52.220;9.884;2023-04-28T07:37:08;100533.06;;;10.03;60.44
16690;BME280;8458;52.220;9.884;2023-04-28T07:39:36;100529.78;;;10.11;60.09
16690;BME280;8458;52.220;9.884;2023-04-28T07:42:04;100532.06;;;10.19;60.06
16690;BME280;8458;52.220;9.884;2023-04-28T07:44:31;100532.94;;;10.25;60.48
16690;BME280;8458;52.220;9.884;2023-04-28T07:46:58;100527.19;;;10.32;61.11
16690;BME280;8458;52.220;9.884;2023-04-28T07:49:25;100523.94;;;10.40;60.28
16690;BME280;8458;52.220;9.884;2023-04-28T07:51:51;100528.09;;;10.43;60.68
16690;BME280;8458;52.220;9.884;2023-04-28T07:54:19;100513.44;;;10.47;60.16
16690;BME280;8458;52.220;9.884;2023-04-28T07:56:46;100520.69;;;10.53;61.27
16690;BME280;8458;52.220;9.884;2023-04-28T07:59:14;100515.97;;;10.59;60.15
16690;BME280;8458;52.220;9.884;2023-04-28T08:01:40;100516.88;;;10.70;61.06
16690;BME280;8458;52.220;9.884;2023-04-28T08:04:07;100506.38;;;10.77;61.64
16690;BME280;8458;52.220;9.884;2023-04-28T08:06:35;100505.28;;;10.83;62.24
16690;BME280;8458;52.220;9.884;2023-04-28T08:09:02;100507.53;;;10.91;61.77
16690;BME280;8458;52.220;9.884;2023-04-28T08:11:30;100499.81;;;10.99;61.48
16690;BME280;8458;52.220;9.884;2023-04-28T08:13:57;100507.06;;;11.10;61.55
16690;BME280;8458;52.220;9.884;2023-04-28T08:16:28;100501.50;;;11.15;59.76
16690;BME280;8458;52.220;9.884;2023-04-28T08:18:56;100497.13;;;11.29;60.13
16690;BME280;8458;52.220;9.884;2023-04-28T08:21:22;100506.59;;;11.39;61.29
16690;BME280;8458;52.220;9.884;2023-04-28T08:23:48;100502.13;;;11.43;59.60
16690;BME280;8458;52.220;9.884;2023-04-28T08:26:15;100497.16;;;11.50;59.07
16690;BME280;8458;52.220;9.884;2023-04-28T08:28:41;100501.06;;;11.54;58.70
16690;BME280;8458;52.220;9.884;2023-04-28T08:31:08;100503.56;;;11.61;59.40
16690;BME280;8458;52.220;9.884;2023-04-28T08:33:36;100503.28;;;11.68;57.42
16690;BME280;8458;52.220;9.884;2023-04-28T08:36:03;100508.84;;;11.73;58.61
16690;BME280;8458;52.220;9.884;2023-04-28T08:38:30;100504.97;;;11.79;58.56
16690;BME280;8458;52.220;9.884;2023-04-28T08:40:57;100502.72;;;11.81;58.73
16690;BME280;8458;52.220;9.884;2023-04-28T08:43:24;100494.38;;;11.86;60.79
16690;BME280;8458;52.220;9.884;2023-04-28T08:45:53;100488.28;;;11.89;58.55
16690;BME280;8458;52.220;9.884;2023-04-28T08:48:20;100493.31;;;11.92;57.92
16690;BME280;8458;52.220;9.884;2023-04-28T08:50:50;100490.81;;;12.01;59.68
16690;BME280;8458;52.220;9.884;2023-04-28T08:53:22;100486.06;;;12.12;58.92
16690;BME280;8458;52.220;9.884;2023-04-28T08:55:51;100481.06;;;12.14;56.99
16690;BME280;8458;52.220;9.884;2023-04-28T08:58:21;100484.41;;;12.21;59.40
16690;BME280;8458;52.220;9.884;2023-04-28T09:00:48;100478.84;;;12.21;58.55
16690;BME280;8458;52.220;9.884;2023-04-28T09:03:14;100468.81;;;12.25;57.92
16690;BME280;8458;52.220;9.884;2023-04-28T09:05:41;100469.38;;;12.27;58.41
16690;BME280;8458;52.220;9.884;2023-04-28T09:08:08;100465.19;;;12.30;59.63
16690;BME280;8458;52.220;9.884;2023-04-28T09:10:36;100460.72;;;12.34;60.15
16690;BME280;8458;52.220;9.884;2023-04-28T09:13:03;100463.19;;;12.41;59.24
16690;BME280;8458;52.220;9.884;2023-04-28T09:15:31;100463.22;;;12.35;59.65
16690;BME280;8458;52.220;9.884;2023-04-28T09:17:59;100450.41;;;12.45;61.24
16690;BME280;8458;52.220;9.884;2023-04-28T09:20:27;100455.41;;;12.48;57.84
16690;BME280;8458;52.220;9.884;2023-04-28T09:22:55;100457.34;;;12.52;59.35
16690;BME280;8458;52.220;9.884;2023-04-28T09:25:24;100448.72;;;12.54;60.04
16690;BME280;8458;52.220;9.884;2023-04-28T09:27:52;100450.94;;;12.57;61.12
16690;BME280;8458;52.220;9.884;2023-04-28T09:30:18;100437.28;;;12.61;59.08
16690;BME280;8458;52.220;9.884;2023-04-28T09:33:03;100437.03;;;12.57;58.21
16690;BME280;8458;52.220;9.884;2023-04-28T09:35:38;100431.13;;;12.69;60.18
16690;BME280;8458;52.220;9.884;2023-04-28T09:38:05;100435.28;;;12.77;60.68
16690;BME280;8458;52.220;9.884;2023-04-28T09:40:48;100435.25;;;12.82;59.30
16690;BME280;8458;52.220;9.884;2023-04-28T09:43:22;100435.19;;;12.87;59.25
16690;BME280;8458;52.220;9.884;2023-04-28T09:45:49;100432.09;;;12.99;59.38
16690;BME280;8458;52.220;9.884;2023-04-28T09:48:16;100422.88;;;13.03;58.75
16690;BME280;8458;52.220;9.884;2023-04-28T09:50:43;100419.81;;;13.05;59.35
16690;BME280;8458;52.220;9.884;2023-04-28T09:53:10;100424.50;;;13.09;59.36
16690;BME280;8458;52.220;9.884;2023-04-28T09:55:42;100421.09;;;13.18;59.14
16690;BME280;8458;52.220;9.884;2023-04-28T09:58:10;100418.91;;;13.15;58.04
16690;BME280;8458;52.220;9.884;2023-04-28T10:00:39;100410.22;;;13.21;58.71
16690;BME280;8458;52.220;9.884;2023-04-28T10:03:06;100415.78;;;13.26;58.35
16690;BME280;8458;52.220;9.884;2023-04-28T10:05:34;100415.47;;;13.33;57.62
16690;BME280;8458;52.220;9.884;2023-04-28T10:08:01;100423.19;;;13.41;59.84
16690;BME280;8458;52.220;9.884;2023-04-28T10:10:27;100420.41;;;13.41;58.76
16690;BME280;8458;52.220;9.884;2023-04-28T10:12:56;100430.16;;;13.44;58.74
16690;BME280;8458;52.220;9.884;2023-04-28T10:15:23;100436.53;;;13.50;58.30
16690;BME280;8458;52.220;9.884;2023-04-28T10:17:51;100439.84;;;13.52;60.43
16690;BME280;8458;52.220;9.884;2023-04-28T10:20:18;100431.47;;;13.52;58.77
16690;BME280;8458;52.220;9.884;2023-04-28T10:22:55;100427.88;;;13.51;59.85
16690;BME280;8458;52.220;9.884;2023-04-28T10:25:27;100430.09;;;13.49;59.80
16690;BME280;8458;52.220;9.884;2023-04-28T10:27:57;100432.59;;;13.51;58.06
16690;BME280;8458;52.220;9.884;2023-04-28T10:30:25;100426.50;;;13.49;59.45
16690;BME280;8458;52.220;9.884;2023-04-28T10:35:51;100419.28;;;13.42;59.18
16690;BME280;8458;52.220;9.884;2023-04-28T10:38:18;100420.97;;;13.38;59.96
16690;BME280;8458;52.220;9.884;2023-04-28T10:40:46;100419.63;;;13.36;60.17
16690;BME280;8458;52.220;9.884;2023-04-28T10:43:32;100416.56;;;13.37;61.46
16690;BME280;8458;52.220;9.884;2023-04-28T10:46:03;100413.22;;;13.35;61.50
16690;BME280;8458;52.220;9.884;2023-04-28T10:48:55;100409.31;;;13.36;61.71
16690;BME280;8458;52.220;9.884;2023-04-28T10:51:31;100408.50;;;13.36;60.19
16690;BME280;8458;52.220;9.884;2023-04-28T10:54:15;100406.00;;;13.34;61.33
16690;BME280;8458;52.220;9.884;2023-04-28T10:59:43;100408.22;;;13.37;61.07
16690;BME280;8458;52.220;9.884;2023-04-28T11:05:17;100400.66;;;13.38;61.17
16690;BME280;8458;52.220;9.884;2023-04-28T11:11:19;100397.00;;;13.42;63.21
16690;BME280;8458;52.220;9.884;2023-04-28T11:13:47;100393.06;;;13.49;66.36
16690;BME280;8458;52.220;9.884;2023-04-28T11:16:17;100379.66;;;13.51;65.28
16690;BME280;8458;52.220;9.884;2023-04-28T11:18:58;100383.00;;;13.53;64.61
16690;BME280;8458;52.220;9.884;2023-04-28T11:21:28;100375.13;;;13.60;63.90
16690;BME280;8458;52.220;9.884;2023-04-28T11:23:55;100387.34;;;13.64;63.66
16690;BME280;8458;52.220;9.884;2023-04-28T11:26:23;100380.09;;;13.68;61.78
16690;BME280;8458;52.220;9.884;2023-04-28T11:28:51;100376.72;;;13.71;63.06
16690;BME280;8458;52.220;9.884;2023-04-28T11:31:20;100379.44;;;13.76;63.82
16690;BME280;8458;52.220;9.884;2023-04-28T11:33:51;100375.00;;;13.75;64.34
16690;BME280;8458;52.220;9.884;2023-04-28T11:36:22;100364.09;;;13.79;61.79
16690;BME280;8458;52.220;9.884;2023-04-28T11:38:49;100362.13;;;13.79;60.89
16690;BME280;8458;52.220;9.884;2023-04-28T11:41:16;100364.63;;;13.81;61.89
16690;BME280;8458;52.220;9.884;2023-04-28T11:43:42;100369.31;;;13.86;62.68
16690;BME280;8458;52.220;9.884;2023-04-28T11:46:09;100365.94;;;13.89;61.31
16690;BME280;8458;52.220;9.884;2023-04-28T11:48:37;100369.56;;;13.89;61.83
16690;BME280;8458;52.220;9.884;2023-04-28T11:51:03;100375.41;;;13.88;62.29
16690;BME280;8458;52.220;9.884;2023-04-28T11:53:41;100376.28;;;13.88;61.78
16690;BME280;8458;52.220;9.884;2023-04-28T11:56:08;100369.81;;;13.93;61.98
16690;BME280;8458;52.220;9.884;2023-04-28T11:58:34;100370.56;;;13.98;62.25
16690;BME280;8458;52.220;9.884;2023-04-28T12:01:07;100359.69;;;14.02;63.81
16690;BME280;8458;52.220;9.884;2023-04-28T12:03:42;100357.06;;;14.11;62.56
16690;BME280;8458;52.220;9.884;2023-04-28T12:06:09;100358.44;;;14.13;61.79
16690;BME280;8458;52.220;9.884;2023-04-28T12:08:36;100360.63;;;14.16;61.91
16690;BME280;8458;52.220;9.884;2023-04-28T12:11:06;100368.69;;;14.18;62.89
16690;BME280;8458;52.220;9.884;2023-04-28T12:13:33;100357.53;;;14.18;61.99
16690;BME280;8458;52.220;9.884;2023-04-28T12:16:01;100357.84;;;14.16;61.40
16690;BME280;8458;52.220;9.884;2023-04-28T12:18:30;100355.88;;;14.17;61.43
16690;BME280;8458;52.220;9.884;2023-04-28T12:20:58;100354.56;;;14.09;60.83
16690;BME280;8458;52.220;9.884;2023-04-28T12:23:29;100356.00;;;14.07;62.27
16690;BME280;8458;52.220;9.884;2023-04-28T12:25:56;100361.03;;;14.05;62.77
16690;BME280;8458;52.220;9.884;2023-04-28T12:28:23;100358.53;;;14.03;61.77
16690;BME280;8458;52.220;9.884;2023-04-28T12:31:01;100363.06;;;13.99;61.71
16690;BME280;8458;52.220;9.884;2023-04-28T12:33:28;100358.91;;;13.96;62.85
16690;BME280;8458;52.220;9.884;2023-04-28T12:35:55;100356.94;;;13.97;62.26
16690;BME280;8458;52.220;9.884;2023-04-28T12:38:23;100347.81;;;13.91;62.99
16690;BME280;8458;52.220;9.884;2023-04-28T12:40:50;100351.19;;;13.88;63.76
16690;BME280;8458;52.220;9.884;2023-04-28T12:43:17;100352.06;;;13.84;64.62
16690;BME280;8458;52.220;9.884;2023-04-28T12:45:45;100342.63;;;13.79;66.10
16690;BME280;8458;52.220;9.884;2023-04-28T12:48:11;100347.63;;;13.83;65.80
16690;BME280;8458;52.220;9.884;2023-04-28T12:50:38;100347.09;;;13.80;66.39
16690;BME280;8458;52.220;9.884;2023-04-28T12:53:04;100349.28;;;13.84;68.34
16690;BME280;8458;52.220;9.884;2023-04-28T12:55:32;100346.50;;;13.84;67.76
16690;BME280;8458;52.220;9.884;2023-04-28T12:57:59;100341.53;;;13.80;67.82
16690;BME280;8458;52.220;9.884;2023-04-28T13:00:25;100335.97;;;13.75;67.39
16690;BME280;8458;52.220;9.884;2023-04-28T13:02:52;100336.28;;;13.74;67.32
16690;BME280;8458;52.220;9.884;2023-04-28T13:05:18;100339.34;;;13.72;66.87
16690;BME280;8458;52.220;9.884;2023-04-28T13:07:45;100342.19;;;13.67;67.05
16690;BME280;8458;52.220;9.884;2023-04-28T13:10:11;100329.38;;;13.66;65.54
16690;BME280;8458;52.220;9.884;2023-04-28T13:12:39;100327.47;;;13.61;66.08
16690;BME280;8458;52.220;9.884;2023-04-28T13:15:07;100323.06;;;13.60;67.21
16690;BME280;8458;52.220;9.884;2023-04-28T13:17:34;100326.97;;;13.59;66.19
16690;BME280;8458;52.220;9.884;2023-04-28T13:20:00;100318.38;;;13.56;66.76
16690;BME280;8458;52.220;9.884;2023-04-28T13:22:28;100320.84;;;13.57;67.64